Time;durP1;ratioP1;P1;durP2;ratioP2;P2;SDS_P1;SDS_P2;PMS_P1;PMS_P2;Temp;Humidity;BMP_temperature;BMP_pressure;BME280_temperature;BME280_humidity;BME280_pressure;Samples;Min_cycle;Max_cycle;Signal;HPM_P1;HPM_P2
2023/10/10 00:00:47;;;;;;;13.50;4.78;;;17.50;92.00;;;;;;5014091;28;20204;-94
2023/10/10 00:03:14;;;;;;;13.68;3.63;;;17.50;92.00;;;;;;4994749;28;20097;-94
2023/10/10 00:05:40;;;;;;;16.88;3.33;;;17.50;92.00;;;;;;5014370;28;20041;-94
2023/10/10 00:08:09;;;;;;;14.07;3.78;;;17.50;92.00;;;;;;5020595;28;20026;-94
2023/10/10 00:10:35;;;;;;;12.43;3.65;;;17.50;92.00;;;;;;4993785;28;20034;-94
2023/10/10 00:13:04;;;;;;;13.98;3.50;;;17.70;92.00;;;;;;5012858;28;20030;-94
2023/10/10 00:15:34;;;;;;;26.30;4.63;;;17.50;92.30;;;;;;5010675;28;20037;-93
2023/10/10 00:18:06;;;;;;;17.42;3.17;;;17.80;92.00;;;;;;5010743;28;20030;-94
2023/10/10 00:20:41;;;;;;;11.07;3.72;;;17.50;91.90;;;;;;5013349;28;20474;-94
2023/10/10 00:23:17;;;;;;;12.20;3.60;;;17.50;91.90;;;;;;5010936;28;20083;-94
2023/10/10 00:25:45;;;;;;;22.25;4.03;;;17.50;91.90;;;;;;5013165;28;20037;-94
2023/10/10 00:28:21;;;;;;;9.48;3.45;;;17.50;91.90;;;;;;4993840;28;20077;-94
2023/10/10 00:30:49;;;;;;;13.77;3.55;;;17.50;91.90;;;;;;5005195;28;20030;-94
2023/10/10 00:33:16;;;;;;;9.48;3.33;;;17.50;91.90;;;;;;4996090;28;20033;-94
2023/10/10 00:35:46;;;;;;;19.80;3.60;;;17.50;91.90;;;;;;4995374;28;20029;-93
2023/10/10 00:38:17;;;;;;;12.25;3.80;;;17.50;91.90;;;;;;5012459;28;20390;-93
2023/10/10 00:40:46;;;;;;;13.40;3.47;;;17.50;91.80;;;;;;4996343;28;20073;-93
2023/10/10 00:43:16;;;;;;;20.20;4.57;;;17.50;91.80;;;;;;4992452;28;20486;-94
2023/10/10 00:46:04;;;;;;;21.00;3.50;;;17.50;91.80;;;;;;5016067;28;20065;-93
2023/10/10 00:48:32;;;;;;;14.93;3.65;;;17.50;91.80;;;;;;4993263;28;20069;-94
2023/10/10 00:51:11;;;;;;;15.23;3.88;;;17.50;91.80;;;;;;5011503;28;20543;-94
2023/10/10 00:53:41;;;;;;;13.17;4.37;;;17.50;91.80;;;;;;5011954;28;20050;-94
2023/10/10 00:56:07;;;;;;;13.85;3.90;;;17.50;91.80;;;;;;5012621;28;20272;-95
2023/10/10 00:58:37;;;;;;;12.07;2.78;;;17.50;91.80;;;;;;4994292;28;20382;-94
2023/10/10 01:01:09;;;;;;;15.45;3.75;;;17.50;91.70;;;;;;5009320;28;20040;-95
2023/10/10 01:03:50;;;;;;;17.70;3.92;;;17.50;91.70;;;;;;5010043;28;20085;-93
2023/10/10 01:06:25;;;;;;;9.75;3.10;;;17.50;91.70;;;;;;5012208;28;20034;-94
2023/10/10 01:09:03;;;;;;;15.00;4.20;;;17.50;91.70;;;;;;5012082;28;20482;-94
2023/10/10 01:11:29;;;;;;;9.23;4.03;;;17.50;91.70;;;;;;5011248;28;20030;-94
2023/10/10 01:13:58;;;;;;;10.10;3.30;;;17.50;91.70;;;;;;4994520;28;20056;-94
2023/10/10 01:16:25;;;;;;;13.68;4.05;;;17.40;91.60;;;;;;4992865;28;20074;-93
2023/10/10 01:18:59;;;;;;;11.35;3.40;;;17.50;91.60;;;;;;4995071;28;20033;-93
2023/10/10 01:21:32;;;;;;;21.55;3.28;;;17.50;91.60;;;;;;5011531;28;20028;-94
2023/10/10 01:24:09;;;;;;;11.80;3.17;;;17.50;91.60;;;;;;4994905;28;20041;-94
2023/10/10 01:26:44;;;;;;;10.95;3.63;;;17.40;91.60;;;;;;4995818;28;20033;-93
2023/10/10 01:29:21;;;;;;;12.43;2.85;;;17.50;91.60;;;;;;4992945;28;20029;-94
2023/10/10 01:31:48;;;;;;;18.65;3.13;;;17.50;91.60;;;;;;5011100;28;20030;-94
2023/10/10 01:34:30;;;;;;;13.23;3.30;;;17.50;91.60;;;;;;4994152;28;20542;-94
2023/10/10 01:37:02;;;;;;;13.80;3.40;;;17.50;91.60;;;;;;5009797;28;20514;-94
2023/10/10 01:40:16;;;;;;;10.30;3.25;;;17.50;91.50;;;;;;5010826;28;20022;-94
2023/10/10 01:42:51;;;;;;;18.27;3.92;;;17.50;91.60;;;;;;4994856;28;20056;-93
2023/10/10 01:45:18;;;;;;;15.48;3.30;;;17.50;91.50;;;;;;5006753;28;20382;-95
2023/10/10 01:47:56;;;;;;;13.02;3.63;;;17.50;91.50;;;;;;5010149;28;20060;-94
2023/10/10 01:50:22;;;;;;;11.07;3.25;;;17.50;91.50;;;;;;5010707;28;20030;-94
2023/10/10 01:52:50;;;;;;;17.65;3.67;;;17.40;91.40;;;;;;5022061;28;20445;-94
2023/10/10 01:55:18;;;;;;;12.73;3.70;;;17.50;91.50;;;;;;4994915;28;20045;-94
2023/10/10 01:57:44;;;;;;;8.23;3.67;;;17.40;91.40;;;;;;5012559;28;20018;-94
2023/10/10 02:02:53;;;;;;;18.63;3.90;;;17.50;91.40;;;;;;5010213;28;20556;-94
2023/10/10 02:05:32;;;;;;;12.77;3.58;;;17.40;91.40;;;;;;5009361;28;20030;-93
2023/10/10 02:07:58;;;;;;;10.05;2.85;;;17.50;91.40;;;;;;5010193;28;20030;-92
2023/10/10 02:10:29;;;;;;;14.05;3.88;;;17.40;91.40;;;;;;4993622;28;20018;-94
2023/10/10 02:12:59;;;;;;;15.90;3.72;;;17.60;91.40;;;;;;5008217;28;20040;-93
2023/10/10 02:15:26;;;;;;;19.38;3.28;;;17.50;91.30;;;;;;5013125;28;20049;-95
2023/10/10 02:17:54;;;;;;;13.10;3.83;;;17.40;91.30;;;;;;5013512;28;20360;-93
2023/10/10 02:22:53;;;;;;;9.00;2.88;;;17.40;91.30;;;;;;5008146;28;20030;-94
2023/10/10 02:28:02;;;;;;;13.93;3.17;;;17.40;91.30;;;;;;5011607;28;20053;-93
2023/10/10 02:30:37;;;;;;;9.48;3.33;;;17.40;91.30;;;;;;5005564;28;20018;-93
2023/10/10 02:33:14;;;;;;;15.15;3.25;;;17.40;91.30;;;;;;5007808;28;20466;-93
2023/10/10 02:35:56;;;;;;;17.42;2.85;;;17.40;91.20;;;;;;5006006;28;20030;-93
2023/10/10 02:38:23;;;;;;;9.65;3.47;;;17.40;91.20;;;;;;5011237;28;20025;-93
2023/10/10 02:40:56;;;;;;;12.18;3.00;;;17.40;91.20;;;;;;5009950;28;20057;-93
2023/10/10 02:43:45;;;;;;;14.55;2.90;;;17.40;91.20;;;;;;5010887;28;20033;-93
2023/10/10 02:46:17;;;;;;;11.90;3.55;;;17.40;91.20;;;;;;5004869;28;20490;-94
2023/10/10 02:48:44;;;;;;;16.00;4.05;;;17.40;91.20;;;;;;4994108;28;20108;-93
2023/10/10 02:51:15;;;;;;;11.88;3.80;;;17.40;91.20;;;;;;4992369;28;20083;-93
2023/10/10 02:53:46;;;;;;;8.02;2.75;;;17.40;91.10;;;;;;4991602;28;20027;-93
2023/10/10 02:56:19;;;;;;;25.42;4.20;;;17.40;91.50;;;;;;5008099;28;20025;-93
2023/10/10 02:58:48;;;;;;;11.95;3.22;;;17.40;91.10;;;;;;4994169;28;20022;-92
2023/10/10 03:01:50;;;;;;;16.20;3.42;;;17.40;91.10;;;;;;4994451;28;20482;-94
2023/10/10 03:04:08;;;;;;;14.82;3.85;;;17.90;91.30;;;;;;5011257;28;20482;-93
2023/10/10 03:06:34;;;;;;;9.35;3.42;;;17.40;91.10;;;;;;5007800;28;20482;-94
2023/10/10 03:09:27;;;;;;;11.07;2.88;;;17.40;91.10;;;;;;5010388;28;20028;-91
2023/10/10 03:11:53;;;;;;;14.07;3.67;;;17.40;91.10;;;;;;4994211;28;20048;-94
2023/10/10 03:14:28;;;;;;;16.90;2.97;;;17.30;91.00;;;;;;4993489;28;20014;-94
2023/10/10 03:17:03;;;;;;;10.15;3.70;;;17.40;91.10;;;;;;4993234;28;20034;-94
2023/10/10 03:19:37;;;;;;;23.58;3.67;;;17.70;91.10;;;;;;5005570;28;20368;-94
2023/10/10 03:22:30;;;;;;;13.00;3.90;;;17.50;91.10;;;;;;4994180;28;20092;-93
2023/10/10 03:25:20;;;;;;;16.23;3.78;;;17.40;91.00;;;;;;4996794;28;20032;-93
2023/10/10 03:27:54;;;;;;;;;;;17.50;91.00;;;;;;4995660;28;20470;-94
2023/10/10 03:30:33;;;;;;;8.57;3.55;;;18.00;91.10;;;;;;4997063;28;19912;-93
2023/10/10 03:33:29;;;;;;;27.88;5.00;;;17.40;91.00;;;;;;5009393;28;20060;-94
2023/10/10 03:36:00;;;;;;;16.38;3.10;;;17.40;91.00;;;;;;5013977;28;20057;-93
2023/10/10 03:38:43;;;;;;;22.23;3.88;;;17.40;90.90;;;;;;4998022;28;20022;-94
2023/10/10 05:25:24;;;;;;;10.32;3.60;;;17.40;90.20;;;;;;5011392;28;20057;-92
2023/10/10 05:27:58;;;;;;;15.50;3.65;;;17.10;90.10;;;;;;5009032;28;20018;-93
2023/10/10 05:30:24;;;;;;;9.77;2.85;;;17.20;90.10;;;;;;5017109;28;20009;-91
2023/10/10 05:33:04;;;;;;;21.02;3.97;;;17.30;90.20;;;;;;4999541;28;20431;-93
2023/10/10 05:35:36;;;;;;;17.75;3.22;;;17.30;90.20;;;;;;5011938;28;20113;-93
2023/10/10 05:38:04;;;;;;;9.15;3.70;;;17.30;90.10;;;;;;5008537;28;20026;-93
2023/10/10 05:40:33;;;;;;;12.60;3.55;;;17.30;90.10;;;;;;5007636;28;20041;-94
2023/10/10 05:43:19;;;;;;;13.17;4.53;;;17.30;90.10;;;;;;5012079;28;20040;-93
2023/10/10 05:45:45;;;;;;;16.42;3.65;;;17.30;90.10;;;;;;4993392;28;20034;-92
2023/10/10 05:48:12;;;;;;;18.38;3.80;;;17.30;90.10;;;;;;5012709;28;20026;-92
2023/10/10 05:50:40;;;;;;;12.18;3.88;;;17.40;90.10;;;;;;5011303;28;20467;-93
2023/10/10 05:53:06;;;;;;;20.65;3.47;;;17.40;90.10;;;;;;5009699;28;20080;-94
2023/10/10 05:55:35;;;;;;;11.18;3.95;;;17.30;90.10;;;;;;5004728;28;20429;-93
2023/10/10 05:58:02;;;;;;;21.98;4.15;;;17.30;90.00;;;;;;5012833;28;20479;-92
2023/10/10 06:00:32;;;;;;;18.33;4.03;;;17.30;90.00;;;;;;5008623;28;20040;-92
2023/10/10 06:02:58;;;;;;;15.40;4.40;;;17.30;90.00;;;;;;5010167;28;20037;-94
2023/10/10 06:05:23;;;;;;;15.43;4.63;;;17.30;90.00;;;;;;5011577;28;20034;-92
2023/10/10 06:07:49;;;;;;;16.50;4.25;;;17.40;90.00;;;;;;4992618;28;20026;-93
2023/10/10 06:10:16;;;;;;;19.25;4.13;;;17.40;90.00;;;;;;5010340;28;20030;-93
2023/10/10 06:12:51;;;;;;;15.15;4.70;;;17.30;89.90;;;;;;5006594;28;20030;-92
2023/10/10 06:15:17;;;;;;;16.23;4.25;;;17.30;89.80;;;;;;4993709;28;20135;-92
2023/10/10 06:17:51;;;;;;;12.68;3.83;;;17.30;89.80;;;;;;4994232;28;20018;-92
2023/10/10 06:20:21;;;;;;;18.20;4.07;;;17.30;89.80;;;;;;5010343;28;20032;-93
2023/10/10 06:22:47;;;;;;;12.45;3.92;;;17.30;89.80;;;;;;5011150;28;20034;-93
2023/10/10 06:25:17;;;;;;;21.17;4.65;;;17.30;89.80;;;;;;5011084;28;20496;-92
2023/10/10 06:27:46;;;;;;;11.82;3.72;;;17.30;89.80;;;;;;5009440;28;20030;-94
2023/10/10 06:30:17;;;;;;;19.30;3.95;;;17.30;89.80;;;;;;5007820;28;20038;-93
2023/10/10 06:32:43;;;;;;;24.08;4.28;;;17.30;89.80;;;;;;5012039;28;20125;-94
2023/10/10 06:37:41;;;;;;;14.60;3.95;;;17.30;89.80;;;;;;5011893;28;20433;-93
2023/10/10 06:40:09;;;;;;;17.58;4.15;;;17.30;89.80;;;;;;4994018;28;20026;-94
2023/10/10 06:42:38;;;;;;;18.85;3.67;;;17.30;89.90;;;;;;5007306;28;20053;-94
2023/10/10 06:45:08;;;;;;;15.93;4.38;;;17.30;89.90;;;;;;5008166;28;20033;-93
2023/10/10 06:47:39;;;;;;;18.02;3.90;;;17.30;90.00;;;;;;5010608;28;20034;-93
2023/10/10 06:50:11;;;;;;;18.88;4.07;;;17.30;89.90;;;;;;4992027;28;20026;-93
2023/10/10 06:52:37;;;;;;;16.10;4.20;;;17.30;90.00;;;;;;4993892;28;20042;-94
2023/10/10 06:55:13;;;;;;;14.80;3.88;;;17.30;90.00;;;;;;5010824;28;20398;-93
2023/10/10 06:57:38;;;;;;;17.35;3.78;;;17.30;90.00;;;;;;4992885;28;20065;-95
2023/10/10 07:00:20;;;;;;;16.73;4.05;;;17.40;90.00;;;;;;5010089;28;20045;-94
2023/10/10 07:02:50;;;;;;;17.30;4.40;;;17.30;90.00;;;;;;5011675;28;20042;-92
2023/10/10 07:05:16;;;;;;;;;;;17.30;90.00;;;;;;4997508;28;20030;-93
2023/10/10 07:07:42;;;;;;;18.48;4.10;;;17.30;90.00;;;;;;5007658;28;19914;-93
2023/10/10 07:10:09;;;;;;;21.45;4.93;;;17.40;90.00;;;;;;5013518;28;20025;-94
2023/10/10 07:12:38;;;;;;;18.95;3.97;;;17.30;90.00;;;;;;4996953;28;20037;-94
2023/10/10 07:15:06;;;;;;;16.98;4.68;;;17.40;90.00;;;;;;5010699;28;20026;-94
2023/10/10 07:17:32;;;;;;;17.00;4.57;;;17.30;90.00;;;;;;5006971;28;20498;-94
2023/10/10 07:22:34;;;;;;;18.05;4.50;;;17.50;90.10;;;;;;5017049;28;20062;-93
2023/10/10 07:25:07;;;;;;;17.23;3.97;;;17.40;90.00;;;;;;5014082;28;20037;-94
2023/10/10 07:27:41;;;;;;;25.92;5.32;;;17.30;90.00;;;;;;5014311;28;20026;-94
2023/10/10 07:30:17;;;;;;;25.42;5.95;;;17.30;90.00;;;;;;5011443;28;20033;-94
2023/10/10 07:32:44;;;;;;;21.50;5.00;;;17.30;90.00;;;;;;5013234;28;20034;-94
2023/10/10 07:35:15;;;;;;;24.15;5.28;;;17.40;90.00;;;;;;5009758;28;20105;-94
2023/10/10 07:37:45;;;;;;;24.00;4.38;;;17.30;89.90;;;;;;5013766;28;20033;-93
2023/10/10 07:42:49;;;;;;;26.73;5.13;;;17.40;89.90;;;;;;4995085;28;20052;-93
2023/10/10 07:45:18;;;;;;;24.15;5.03;;;17.40;89.90;;;;;;4997352;28;20024;-91
2023/10/10 07:50:35;;;;;;;18.73;4.40;;;17.40;89.90;;;;;;5014267;28;20036;-93
2023/10/10 07:53:06;;;;;;;21.65;3.65;;;17.40;89.90;;;;;;5009034;28;20033;-94
2023/10/10 07:55:53;;;;;;;22.02;4.00;;;17.40;89.80;;;;;;5013438;28;20030;-95
2023/10/10 07:58:27;;;;;;;17.40;3.78;;;17.40;89.90;;;;;;4997187;28;20066;-94
2023/10/10 08:01:08;;;;;;;19.77;3.85;;;17.40;89.90;;;;;;5010858;28;20030;-95
2023/10/10 08:03:34;;;;;;;16.15;3.95;;;17.40;89.80;;;;;;5011312;28;20042;-94
2023/10/10 08:05:59;;;;;;;11.48;3.80;;;17.40;89.80;;;;;;4996526;28;20030;-94
2023/10/10 08:08:26;;;;;;;15.88;3.90;;;18.10;90.10;;;;;;5008451;28;20018;-94
2023/10/10 08:10:51;;;;;;;19.13;3.60;;;17.40;89.80;;;;;;4996017;28;20018;-95
2023/10/10 08:13:19;;;;;;;19.85;3.72;;;18.10;90.10;;;;;;5011552;28;20116;-95
2023/10/10 08:15:56;;;;;;;34.20;5.13;;;17.40;89.80;;;;;;4996802;28;20022;-94
2023/10/10 08:18:49;;;;;;;12.95;3.97;;;17.90;90.00;;;;;;4996092;28;20426;-94
2023/10/10 08:21:16;;;;;;;12.38;3.83;;;17.40;89.80;;;;;;5007220;28;20026;-95
2023/10/10 08:23:43;;;;;;;16.08;3.60;;;17.50;89.80;;;;;;5011378;28;20634;-95
2023/10/10 08:26:16;;;;;;;21.90;3.63;;;17.50;89.80;;;;;;5015711;28;20108;-94
2023/10/10 08:28:46;;;;;;;16.50;4.18;;;17.50;89.80;;;;;;4996252;28;20112;-94
2023/10/10 08:31:13;;;;;;;18.38;3.30;;;17.40;89.80;;;;;;5012556;28;20026;-95
2023/10/10 08:33:49;;;;;;;14.77;4.00;;;17.40;89.80;;;;;;5012829;28;20022;-95
2023/10/10 08:36:25;;;;;;;37.03;4.82;;;17.40;89.80;;;;;;4994325;28;20026;-95
2023/10/10 08:38:56;;;;;;;10.85;3.58;;;17.40;89.70;;;;;;4996440;28;20030;-93
2023/10/10 08:41:27;;;;;;;23.13;4.03;;;17.40;89.80;;;;;;5012100;28;20029;-94
2023/10/10 08:44:01;;;;;;;15.85;3.58;;;17.40;89.80;;;;;;5004950;28;20093;-94
2023/10/10 08:46:31;;;;;;;19.25;4.15;;;17.40;90.20;;;;;;5013036;28;20025;-93
2023/10/10 08:48:59;;;;;;;16.33;4.10;;;17.40;89.80;;;;;;5018479;28;20022;-94
2023/10/10 08:51:32;;;;;;;10.18;3.50;;;17.40;89.80;;;;;;5012874;28;20536;-85
2023/10/10 08:53:59;;;;;;;8.90;3.55;;;17.40;89.80;;;;;;5012246;28;20022;-85
2023/10/10 08:56:25;;;;;;;21.15;3.53;;;17.40;89.80;;;;;;4994489;28;20125;-85
2023/10/10 08:58:51;;;;;;;16.55;3.25;;;17.40;89.80;;;;;;5012224;28;20161;-85
2023/10/10 09:01:16;;;;;;;24.67;4.22;;;17.40;89.80;;;;;;4994300;28;20540;-85
2023/10/10 09:03:45;;;;;;;13.75;3.63;;;17.40;89.80;;;;;;5010054;28;20033;-85
2023/10/10 09:06:58;;;;;;;12.23;4.03;;;17.40;89.90;;;;;;5010832;28;20026;-85
2023/10/10 09:09:34;;;;;;;20.70;4.03;;;17.40;90.00;;;;;;5011392;28;20026;-85
2023/10/10 09:12:03;;;;;;;27.70;4.20;;;17.50;90.00;;;;;;5011637;28;20025;-86
2023/10/10 09:14:43;;;;;;;23.08;4.93;;;17.40;90.00;;;;;;4995073;28;20026;-90
2023/10/10 09:17:28;;;;;;;23.98;4.97;;;17.40;90.10;;;;;;4997173;28;20022;-93
2023/10/10 09:19:54;;;;;;;16.77;4.38;;;17.50;90.00;;;;;;4992122;28;20061;-82
2023/10/10 09:22:33;;;;;;;15.68;3.53;;;17.50;90.20;;;;;;5011940;28;20605;-90
2023/10/10 09:25:17;;;;;;;15.38;4.68;;;17.50;90.50;;;;;;5011529;28;20018;-92
2023/10/10 09:27:57;;;;;;;16.30;4.85;;;17.50;90.20;;;;;;5007317;28;20041;-91
2023/10/10 09:30:30;;;;;;;17.00;4.65;;;17.50;90.30;;;;;;5010160;28;20116;-85
2023/10/10 09:33:00;;;;;;;15.88;3.70;;;17.50;90.40;;;;;;5011135;28;20025;-93
2023/10/10 09:35:28;;;;;;;11.52;3.60;;;17.50;90.50;;;;;;4995482;28;20367;-91
2023/10/10 09:37:57;;;;;;;15.45;4.18;;;17.50;90.60;;;;;;5008829;28;20037;-87
2023/10/10 09:40:24;;;;;;;14.05;3.65;;;17.50;90.80;;;;;;5011406;28;20100;-89
2023/10/10 09:43:03;;;;;;;15.20;3.65;;;17.60;90.90;;;;;;4994152;28;20030;-91
2023/10/10 09:48:17;;;;;;;27.98;5.53;;;17.60;91.10;;;;;;5011860;28;20030;-90
2023/10/10 09:51:08;;;;;;;19.85;4.68;;;17.60;91.10;;;;;;5011498;28;20509;-89
2023/10/10 09:53:33;;;;;;;25.77;5.03;;;17.60;91.30;;;;;;5010875;28;20030;-89
2023/10/10 09:56:02;;;;;;;18.38;5.00;;;17.60;91.40;;;;;;4994881;28;20368;-90
2023/10/10 09:58:29;;;;;;;23.83;5.40;;;17.70;91.50;;;;;;4994406;28;20459;-92
2023/10/10 10:01:03;;;;;;;13.77;3.88;;;18.30;91.60;;;;;;5014086;28;20022;-90
2023/10/10 10:06:37;;;;;;;20.30;4.90;;;17.70;91.70;;;;;;5013951;28;20386;-92
2023/10/10 10:09:14;;;;;;;16.27;4.60;;;17.80;91.90;;;;;;4989034;28;20034;-93
2023/10/10 10:11:51;;;;;;;20.02;5.45;;;17.80;91.80;;;;;;5013760;28;20030;-94
2023/10/10 10:14:35;;;;;;;18.70;4.13;;;17.80;92.00;;;;;;4995637;28;20505;-89
2023/10/10 10:17:44;;;;;;;22.67;4.28;;;17.80;91.90;;;;;;5016371;28;20025;-90
2023/10/10 10:20:20;;;;;;;20.55;4.45;;;17.80;91.90;;;;;;5011505;28;20105;-90
2023/10/10 10:22:53;;;;;;;16.60;5.25;;;17.90;92.00;;;;;;5010327;28;20060;-89
2023/10/10 10:25:25;;;;;;;22.88;4.47;;;17.90;92.10;;;;;;5002234;28;20049;-93
2023/10/10 10:28:00;;;;;;;25.90;4.57;;;17.90;92.10;;;;;;4995095;28;20037;-92
2023/10/10 10:32:59;;;;;;;22.50;4.05;;;18.30;92.50;;;;;;5010445;28;20063;-85
2023/10/10 10:35:46;;;;;;;16.05;4.78;;;18.60;92.30;;;;;;5014585;28;20394;-85
2023/10/10 10:38:11;;;;;;;19.15;4.88;;;18.80;91.30;;;;;;5011481;28;20058;-84
2023/10/10 10:43:15;;;;;;;20.10;4.35;;;18.90;91.70;;;;;;5011696;28;20501;-84
2023/10/10 10:45:51;;;;;;;14.82;4.22;;;19.00;91.20;;;;;;5013222;28;20029;-87
2023/10/10 10:48:30;;;;;;;20.02;4.03;;;19.00;91.00;;;;;;5014236;28;20034;-86
2023/10/10 10:51:14;;;;;;;20.48;3.75;;;19.00;91.00;;;;;;5014091;28;20044;-86
2023/10/10 10:53:50;;;;;;;21.42;4.60;;;19.10;91.50;;;;;;5014406;28;20034;-87
2023/10/10 11:01:17;;;;;;;24.48;3.47;;;19.40;91.00;;;;;;5014051;28;20041;-86
2023/10/10 11:03:44;;;;;;;18.27;4.72;;;19.30;91.30;;;;;;5013826;28;20034;-85
2023/10/10 11:06:14;;;;;;;10.45;4.65;;;19.30;91.10;;;;;;5013697;28;20033;-86
2023/10/10 11:11:35;;;;;;;19.77;3.72;;;20.00;90.50;;;;;;5014271;28;20072;-86
2023/10/10 11:14:10;;;;;;;17.38;4.28;;;19.40;90.90;;;;;;4997338;28;20125;-89
2023/10/10 11:16:44;;;;;;;20.55;4.82;;;19.40;91.20;;;;;;5014047;28;20026;-85
2023/10/10 11:19:54;;;;;;;14.95;3.70;;;19.40;91.20;;;;;;5013855;28;20033;-85
2023/10/10 11:22:12;;;;;;;;;;;19.50;91.50;;;;;;5010270;28;20194;-84
2023/10/10 11:24:38;;;;;;;9.68;3.50;;;19.50;92.60;;;;;;4997808;28;19912;-85
2023/10/10 11:27:14;;;;;;;11.75;3.25;;;19.60;91.40;;;;;;5015156;28;20022;-86
2023/10/10 11:30:00;;;;;;;16.15;3.70;;;19.50;91.10;;;;;;4992482;28;20037;-83
2023/10/10 11:32:36;;;;;;;19.80;3.67;;;19.50;90.50;;;;;;5015782;28;20030;-84
2023/10/10 11:35:17;;;;;;;16.48;4.10;;;19.50;90.90;;;;;;5015587;28;20036;-84
2023/10/10 11:38:33;;;;;;;16.40;3.97;;;19.60;91.40;;;;;;5009114;28;20030;-85
2023/10/10 11:40:36;;;;;;;22.15;4.43;;;19.60;91.60;;;;;;5005476;28;20038;-85
2023/10/10 11:43:11;;;;;;;30.65;5.38;;;19.70;91.40;;;;;;5012435;28;20046;-85
2023/10/10 11:45:41;;;;;;;15.98;3.88;;;19.70;90.90;;;;;;4994809;28;20034;-84
2023/10/10 11:48:13;;;;;;;13.50;3.60;;;19.70;89.60;;;;;;5012309;28;20486;-84
2023/10/10 11:50:44;;;;;;;21.13;4.15;;;19.70;89.60;;;;;;5012297;28;20032;-85
2023/10/10 11:53:15;;;;;;;11.85;3.00;;;19.70;89.20;;;;;;5012876;28;20024;-86
2023/10/10 11:55:41;;;;;;;18.00;3.45;;;19.80;90.00;;;;;;5013017;28;20022;-84
2023/10/10 11:58:07;;;;;;;31.50;3.72;;;19.80;88.40;;;;;;5014395;28;20026;-86
2023/10/10 12:00:42;;;;;;;19.20;4.20;;;19.80;90.30;;;;;;5010442;28;20085;-82
2023/10/10 12:03:09;;;;;;;25.30;3.38;;;19.90;88.60;;;;;;5012722;28;20117;-83
2023/10/10 12:08:01;;;;;;;29.85;3.63;;;20.00;88.20;;;;;;5014808;28;20048;-85
2023/10/10 12:13:09;;;;;;;23.65;3.85;;;20.70;86.80;;;;;;5011054;28;20113;-85
2023/10/10 12:15:38;;;;;;;20.70;4.30;;;19.90;87.10;;;;;;5013681;28;20406;-84
2023/10/10 12:18:09;;;;;;;22.15;4.10;;;20.00;86.90;;;;;;5011256;28;20117;-82
2023/10/10 12:20:36;;;;;;;13.40;3.08;;;20.00;85.90;;;;;;5012330;28;20478;-82
2023/10/10 12:23:01;;;;;;;12.43;3.60;;;19.90;85.40;;;;;;5013991;28;20037;-81
2023/10/10 12:25:27;;;;;;;25.65;3.38;;;19.90;85.70;;;;;;5014395;28;20089;-82
2023/10/10 12:28:00;;;;;;;18.70;3.70;;;19.90;86.30;;;;;;5012499;28;20080;-83
2023/10/10 12:30:27;;;;;;;14.57;3.95;;;20.00;85.60;;;;;;4992900;28;20073;-82
2023/10/10 12:32:53;;;;;;;17.60;3.45;;;20.00;87.30;;;;;;5010720;28;20025;-82
2023/10/10 12:35:23;;;;;;;19.58;3.95;;;20.00;86.40;;;;;;5011479;28;20025;-82
2023/10/10 12:37:49;;;;;;;26.48;3.55;;;20.00;87.60;;;;;;5009901;28;20105;-82
2023/10/10 12:40:15;;;;;;;24.40;4.15;;;20.00;85.80;;;;;;5010047;28;20228;-82
2023/10/10 12:42:40;;;;;;;18.80;3.97;;;20.00;86.40;;;;;;4993474;28;20025;-82
2023/10/10 12:45:07;;;;;;;15.70;3.90;;;19.90;86.50;;;;;;5013635;28;20017;-82
2023/10/10 12:47:33;;;;;;;26.45;3.30;;;19.90;86.60;;;;;;5011204;28;20116;-81
2023/10/10 12:50:13;;;;;;;22.67;4.50;;;19.90;86.30;;;;;;5011070;28;20164;-82
2023/10/10 12:52:45;;;;;;;15.30;3.92;;;19.90;86.40;;;;;;5011431;28;20033;-82
2023/10/10 12:55:11;;;;;;;22.48;3.33;;;19.90;87.00;;;;;;5011949;28;20030;-83
2023/10/10 12:57:38;;;;;;;24.92;3.30;;;19.90;86.20;;;;;;5009350;28;20582;-82
2023/10/10 13:00:23;;;;;;;14.23;3.63;;;20.00;86.60;;;;;;5010568;28;20153;-81
2023/10/10 13:02:50;;;;;;;19.88;3.80;;;20.00;87.00;;;;;;5011695;28;20390;-83
2023/10/10 13:05:16;;;;;;;21.83;4.15;;;20.10;88.00;;;;;;5010929;28;20045;-78
2023/10/10 13:07:43;;;;;;;18.50;3.25;;;20.20;86.10;;;;;;5011311;28;20029;-82
2023/10/10 13:10:10;;;;;;;17.25;3.83;;;20.10;84.80;;;;;;5010707;28;20386;-82
2023/10/10 13:12:51;;;;;;;20.45;4.25;;;20.00;84.40;;;;;;5010566;28;20021;-81
2023/10/10 13:15:27;;;;;;;21.55;3.72;;;20.00;84.90;;;;;;5011204;28;20026;-83
2023/10/10 13:17:53;;;;;;;14.25;3.47;;;20.00;84.20;;;;;;5013674;28;20475;-83
2023/10/10 13:20:21;;;;;;;17.23;3.80;;;20.90;85.50;;;;;;5009117;28;20022;-83
2023/10/10 13:22:53;;;;;;;9.70;3.30;;;20.00;83.80;;;;;;5012638;28;20046;-82
2023/10/10 13:25:20;;;;;;;21.65;3.60;;;20.00;83.00;;;;;;5011569;28;20157;-82
2023/10/10 13:27:46;;;;;;;16.02;3.33;;;20.00;82.40;;;;;;4993524;28;20030;-82
2023/10/10 13:30:12;;;;;;;13.48;3.30;;;19.90;84.10;;;;;;5010908;28;20022;-83
2023/10/10 13:32:38;;;;;;;12.23;3.05;;;20.00;84.90;;;;;;5007959;28;20036;-83
2023/10/10 13:35:08;;;;;;;8.73;2.70;;;20.00;85.90;;;;;;5010947;28;20018;-83
2023/10/10 13:37:41;;;;;;;16.95;3.45;;;20.00;84.40;;;;;;5012933;28;20034;-82
2023/10/10 13:40:07;;;;;;;19.98;3.50;;;19.90;84.50;;;;;;5010802;28;20449;-83
2023/10/10 13:42:34;;;;;;;16.23;3.28;;;19.90;85.80;;;;;;5013870;28;20037;-82
2023/10/10 13:45:09;;;;;;;18.95;3.28;;;20.10;85.00;;;;;;5016431;28;20073;-82
2023/10/10 13:47:36;;;;;;;19.58;2.97;;;19.80;84.90;;;;;;5013163;28;20406;-83
2023/10/10 13:50:28;;;;;;;17.38;3.60;;;19.80;83.90;;;;;;5014510;28;20479;-82
2023/10/10 13:52:54;;;;;;;16.08;3.58;;;19.80;84.60;;;;;;5010318;28;20034;-83
2023/10/10 13:55:21;;;;;;;28.00;3.95;;;19.80;85.60;;;;;;5011815;28;20053;-83
2023/10/10 13:57:47;;;;;;;21.40;3.78;;;19.90;85.00;;;;;;5010943;28;20014;-82
2023/10/10 14:00:29;;;;;;;12.82;3.00;;;19.90;83.20;;;;;;5014450;28;20036;-83
2023/10/10 14:03:05;;;;;;;17.77;3.30;;;19.90;84.30;;;;;;5010056;28;20053;-81
2023/10/10 14:05:35;;;;;;;20.95;3.72;;;20.00;83.60;;;;;;4996711;28;20080;-83
2023/10/10 14:08:03;;;;;;;21.55;3.65;;;20.00;84.00;;;;;;5012034;28;20076;-81
2023/10/10 14:10:39;;;;;;;26.15;3.78;;;20.00;83.90;;;;;;5011538;28;20039;-83
2023/10/10 14:13:18;;;;;;;18.48;3.80;;;19.90;84.50;;;;;;5008916;28;20133;-81
2023/10/10 14:15:55;;;;;;;9.52;3.40;;;19.90;86.10;;;;;;5010807;28;20390;-82
2023/10/10 14:18:30;;;;;;;9.20;3.08;;;19.90;84.60;;;;;;5012178;28;20617;-82
2023/10/10 14:21:01;;;;;;;23.65;4.05;;;19.80;84.50;;;;;;5009092;28;20030;-81
2023/10/10 14:23:29;;;;;;;16.92;3.22;;;19.90;85.60;;;;;;5007976;28;20084;-82
2023/10/10 14:26:12;;;;;;;13.27;3.15;;;19.90;84.40;;;;;;5011284;28;20118;-82
2023/10/10 14:28:38;;;;;;;16.02;3.65;;;19.90;84.10;;;;;;5008759;28;20029;-82
2023/10/10 14:31:04;;;;;;;13.88;4.30;;;19.90;85.00;;;;;;5007407;28;20056;-82
2023/10/10 14:33:29;;;;;;;13.60;3.30;;;20.00;87.10;;;;;;5012498;28;20029;-82
2023/10/10 14:35:55;;;;;;;14.27;3.70;;;20.00;86.70;;;;;;4992612;28;20602;-82
2023/10/10 14:38:21;;;;;;;23.48;3.55;;;19.90;85.10;;;;;;4993047;28;20356;-81
2023/10/10 14:40:46;;;;;;;17.52;3.40;;;20.00;85.20;;;;;;5009274;28;20065;-83
2023/10/10 14:43:12;;;;;;;24.33;4.07;;;19.90;84.00;;;;;;5010428;28;20760;-82
2023/10/10 14:45:43;;;;;;;15.98;3.75;;;19.90;85.20;;;;;;5010672;28;20105;-82
2023/10/10 14:48:10;;;;;;;29.95;5.13;;;19.90;84.30;;;;;;5009306;28;20021;-82
2023/10/10 14:50:42;;;;;;;16.40;3.65;;;19.90;85.40;;;;;;5011481;28;20128;-82
2023/10/10 14:53:11;;;;;;;15.15;4.05;;;19.90;84.70;;;;;;5010982;28;20475;-82
2023/10/10 14:55:45;;;;;;;10.80;3.15;;;19.90;85.10;;;;;;5012941;28;20053;-82
2023/10/10 14:58:13;;;;;;;27.38;3.25;;;19.90;84.80;;;;;;5009838;28;20344;-82
2023/10/10 15:00:41;;;;;;;30.35;3.75;;;19.90;84.60;;;;;;4992664;28;20113;-82
2023/10/10 15:03:15;;;;;;;14.60;3.13;;;19.80;84.40;;;;;;5009952;28;20041;-83
2023/10/10 15:05:52;;;;;;;22.67;4.43;;;19.80;84.30;;;;;;5013284;28;20038;-81
2023/10/10 15:08:19;;;;;;;15.30;2.80;;;19.70;83.50;;;;;;5011376;28;20054;-82
2023/10/10 15:10:46;;;;;;;12.75;3.97;;;19.70;83.60;;;;;;5010417;28;20040;-82
2023/10/10 15:13:15;;;;;;;13.43;3.35;;;19.70;84.10;;;;;;5008062;28;20518;-83
2023/10/10 15:15:45;;;;;;;20.55;4.03;;;19.70;84.50;;;;;;5009240;28;20066;-82
2023/10/10 15:18:18;;;;;;;25.23;3.75;;;19.70;84.60;;;;;;5009234;28;20053;-82
2023/10/10 15:20:48;;;;;;;29.85;3.40;;;19.70;84.30;;;;;;5011909;28;20681;-82
2023/10/10 15:23:22;;;;;;;15.93;4.05;;;19.70;85.10;;;;;;4979713;28;20038;-83
2023/10/10 15:26:17;;;;;;;13.40;3.50;;;19.70;84.20;;;;;;5011521;28;20025;-83
2023/10/10 15:28:44;;;;;;;21.77;4.43;;;19.70;85.10;;;;;;5012053;28;20470;-83